Harvard, Texas
Current Conditions -  °F | °C
As of 8:35 AM on Monday 20 Oct 2014 (Local Time) from KOSA Reporting Station
Clear Clear  
Wind Chill: 51°   Ceiling: Unl
Heat Index: 51°   Visibility: 10mi
Dew Point: 51°   Wind: 0mph
Humidity: 99%   Direction: NA
Pressure: 30.13"   Gusts: NA
Location:  32.9352°N, 94.9553°W
Report Text: KOSA 201335Z AUTO 00000KT 10SM CLR 11/11 A3013 RMK AO1 T01080107
Loading
Personal Weather Stations






























Interactive Weather Map
Tropical Storm Tracking
New forecast layout! Learn more

10-Day Weather Forecast

Advertisements
Track Severe Weather on mobile